Time;durP1;ratioP1;P1;durP2;ratioP2;P2;SDS_P1;SDS_P2;PMS_P1;PMS_P2;Temp;Humidity;BMP_temperature;BMP_pressure;BME280_temperature;BME280_humidity;BME280_pressure;Samples;Min_cycle;Max_cycle;Signal;HPM_P1;HPM_P2
2022/03/27 00:00:45;;;;;;;;;;;;;;;17.96;59.08;101585.59;5033823;28;2033;-36
2022/03/27 00:03:11;;;;;;;;;;;;;;;17.94;59.02;101600.91;5032939;28;1518;-35
2022/03/27 00:05:38;;;;;;;;;;;;;;;17.89;58.87;101588.69;5033828;28;1366;-36
2022/03/27 00:08:06;;;;;;;;;;;;;;;17.89;58.87;101586.03;5035473;28;1329;-36
2022/03/27 00:11:23;;;;;;;;;;;;;;;17.85;58.48;101579.19;5032889;28;1621;-36
2022/03/27 00:13:21;;;;;;;;;;;;;;;17.86;58.48;101588.91;5033423;28;1961;-36
2022/03/27 00:15:47;;;;;;;;;;;;;;;17.83;58.27;101575.75;5032248;28;1610;-36
2022/03/27 00:18:14;;;;;;;;;;;;;;;17.84;59.37;101590.84;5033472;28;1620;-36
2022/03/27 00:20:40;;;;;;;;;;;;;;;17.80;59.53;101581.28;5032459;28;2280;-36
2022/03/27 00:23:08;;;;;;;;;;;;;;;17.82;59.18;101567.81;5035448;28;1343;-36
2022/03/27 00:25:34;;;;;;;;;;;;;;;17.79;59.40;101584.09;5033204;28;1569;-36
2022/03/27 00:28:01;;;;;;;;;;;;;;;17.78;59.49;101593.91;5033552;28;1469;-36
2022/03/27 00:30:27;;;;;;;;;;;;;;;17.76;59.37;101585.13;5032459;28;1440;-37
2022/03/27 00:32:54;;;;;;;;;;;;;;;17.77;59.71;101570.81;5032782;28;1712;-36
2022/03/27 00:35:20;;;;;;;;;;;;;;;17.75;59.29;101583.44;5034960;28;1341;-37
2022/03/27 00:37:47;;;;;;;;;;;;;;;17.77;59.32;101586.84;5032170;28;1980;-36
2022/03/27 00:40:15;;;;;;;;;;;;;;;17.74;58.86;101570.16;5033049;28;1898;-36
2022/03/27 00:42:42;;;;;;;;;;;;;;;17.75;59.14;101588.78;5028910;28;2112;-36
2022/03/27 00:45:09;;;;;;;;;;;;;;;17.66;59.68;101576.88;5023363;28;1784;-36
2022/03/27 00:47:35;;;;;;;;;;;;;;;17.70;59.37;101574.88;5027616;28;1680;-36
2022/03/27 00:50:02;;;;;;;;;;;;;;;17.69;59.87;101565.16;5026905;28;1465;-36
2022/03/27 00:52:29;;;;;;;;;;;;;;;17.68;59.19;101569.63;5021892;28;1889;-36
2022/03/27 00:54:56;;;;;;;;;;;;;;;17.66;59.57;101557.31;5029799;28;1971;-36
2022/03/27 00:57:24;;;;;;;;;;;;;;;17.66;59.55;101573.38;5027039;28;1800;-36
2022/03/27 00:59:51;;;;;;;;;;;;;;;17.63;59.93;101573.59;5032506;28;1906;-36
2022/03/27 01:02:18;;;;;;;;;;;;;;;17.63;59.46;101585.16;5026969;28;1855;-36
2022/03/27 01:04:45;;;;;;;;;;;;;;;17.65;60.11;101587.72;5015920;28;1626;-37
2022/03/27 01:07:13;;;;;;;;;;;;;;;17.63;59.79;101579.78;5021375;28;1067;-36
2022/03/27 01:09:40;;;;;;;;;;;;;;;17.63;59.89;101578.94;5031519;28;1792;-36
2022/03/27 01:12:12;;;;;;;;;;;;;;;17.62;59.56;101575.41;5027640;28;1566;-36
2022/03/27 01:14:40;;;;;;;;;;;;;;;17.61;59.54;101578.19;5030347;28;2039;-36
2022/03/27 01:17:08;;;;;;;;;;;;;;;17.58;60.00;101579.25;5025189;28;1763;-36
2022/03/27 01:19:35;;;;;;;;;;;;;;;17.59;59.64;101570.28;5026098;28;1902;-36
2022/03/27 01:22:03;;;;;;;;;;;;;;;17.58;59.80;101578.41;5026863;28;999;-36
2022/03/27 01:24:29;;;;;;;;;;;;;;;17.56;58.96;101581.16;5018575;28;1780;-36
2022/03/27 01:26:56;;;;;;;;;;;;;;;17.56;59.49;101583.84;5026909;28;1732;-36
2022/03/27 01:29:22;;;;;;;;;;;;;;;17.55;60.12;101578.59;5019455;28;1776;-36
2022/03/27 01:31:51;;;;;;;;;;;;;;;17.53;59.73;101577.84;5024493;28;1778;-38
2022/03/27 01:34:18;;;;;;;;;;;;;;;17.55;59.68;101574.13;5030417;28;1784;-36
2022/03/27 01:36:44;;;;;;;;;;;;;;;17.52;60.74;101579.69;5023178;28;1739;-36
2022/03/27 01:39:14;;;;;;;;;;;;;;;17.53;59.57;101575.19;5025581;28;1903;-36
2022/03/27 01:41:41;;;;;;;;;;;;;;;17.54;59.80;101574.22;5026500;28;1529;-36
2022/03/27 01:44:08;;;;;;;;;;;;;;;17.52;59.87;101566.31;5016310;28;1788;-36
2022/03/27 01:46:35;;;;;;;;;;;;;;;17.53;59.91;101565.34;5023634;28;1083;-36
2022/03/27 01:49:02;;;;;;;;;;;;;;;17.52;60.16;101570.81;5031379;28;1912;-36
2022/03/27 01:51:29;;;;;;;;;;;;;;;17.50;59.84;101577.09;5028177;28;1537;-36
2022/03/27 01:53:55;;;;;;;;;;;;;;;17.50;60.33;101563.72;5027116;28;1768;-36
2022/03/27 01:56:24;;;;;;;;;;;;;;;17.47;60.43;101553.25;5026348;28;1088;-36
2022/03/27 01:58:51;;;;;;;;;;;;;;;17.50;60.46;101571.75;5026938;28;1504;-36
2022/03/27 02:01:19;;;;;;;;;;;;;;;17.46;60.44;101556.88;5135422;22;3671;-36
2022/03/27 02:03:46;;;;;;;;;;;;;;;17.47;60.20;101563.97;5040787;28;1768;-36
2022/03/27 02:06:12;;;;;;;;;;;;;;;17.47;60.28;101566.63;5044525;28;1502;-36
2022/03/27 02:08:39;;;;;;;;;;;;;;;17.46;60.27;101564.91;5051734;28;1705;-36
2022/03/27 02:11:06;;;;;;;;;;;;;;;17.46;59.82;101562.22;5047222;28;1712;-36
2022/03/27 02:13:34;;;;;;;;;;;;;;;17.46;60.08;101566.72;5040061;28;1784;-36
2022/03/27 02:16:02;;;;;;;;;;;;;;;17.46;59.79;101564.91;5042936;28;1669;-36
2022/03/27 02:18:29;;;;;;;;;;;;;;;17.42;59.70;101562.56;5046691;28;1655;-36
2022/03/27 02:20:56;;;;;;;;;;;;;;;17.42;61.12;101566.09;5039624;28;1898;-36
2022/03/27 02:23:23;;;;;;;;;;;;;;;17.40;60.47;101559.97;5043662;28;1102;-36
2022/03/27 02:25:49;;;;;;;;;;;;;;;17.41;60.47;101563.53;5040526;28;2030;-36
2022/03/27 02:28:15;;;;;;;;;;;;;;;17.37;59.98;101562.00;5042751;28;1666;-36
2022/03/27 02:30:44;;;;;;;;;;;;;;;17.40;60.75;101569.84;5047770;28;1761;-36
2022/03/27 02:33:10;;;;;;;;;;;;;;;17.37;60.19;101556.66;5044150;28;1516;-36
2022/03/27 02:35:37;;;;;;;;;;;;;;;17.40;60.55;101562.66;5044984;28;1760;-37
2022/03/27 02:38:04;;;;;;;;;;;;;;;17.39;60.54;101565.44;5045665;28;1046;-36
2022/03/27 02:40:31;;;;;;;;;;;;;;;17.41;60.39;101584.94;5039632;28;1985;-36
2022/03/27 02:42:59;;;;;;;;;;;;;;;17.40;59.71;101561.81;5044305;28;1758;-36
2022/03/27 02:45:26;;;;;;;;;;;;;;;17.39;60.42;101573.44;5046393;28;1613;-36
2022/03/27 02:47:54;;;;;;;;;;;;;;;17.38;60.10;101564.59;5042962;28;1499;-36
2022/03/27 02:50:20;;;;;;;;;;;;;;;17.39;60.05;101581.47;5033060;28;1549;-36
2022/03/27 02:52:47;;;;;;;;;;;;;;;17.40;60.34;101565.34;5044247;28;1095;-36
2022/03/27 02:55:13;;;;;;;;;;;;;;;17.38;60.36;101585.97;5039076;28;1728;-36
2022/03/27 02:57:40;;;;;;;;;;;;;;;17.37;59.51;101567.34;5045407;28;1841;-37
2022/03/27 03:00:08;;;;;;;;;;;;;;;17.37;60.73;101581.59;5046991;28;1981;-36
2022/03/27 03:02:34;;;;;;;;;;;;;;;17.36;59.92;101579.88;5036122;28;1816;-36
2022/03/27 03:05:05;;;;;;;;;;;;;;;17.31;60.75;101579.34;5042728;28;1742;-36
2022/03/27 03:07:34;;;;;;;;;;;;;;;17.33;60.93;101561.38;5037532;28;1070;-36
2022/03/27 03:10:02;;;;;;;;;;;;;;;17.31;59.94;101584.69;5035223;28;1842;-36
2022/03/27 03:12:32;;;;;;;;;;;;;;;17.33;60.44;101580.09;5038439;28;2108;-36
2022/03/27 03:15:01;;;;;;;;;;;;;;;17.31;60.58;101576.69;5046248;28;2043;-36
2022/03/27 03:17:28;;;;;;;;;;;;;;;17.34;60.44;101594.31;5039533;28;1789;-36
2022/03/27 03:19:57;;;;;;;;;;;;;;;17.32;60.28;101574.84;5041537;28;2153;-36
2022/03/27 03:22:30;;;;;;;;;;;;;;;17.33;60.13;101597.94;5046648;28;1940;-36
2022/03/27 03:25:00;;;;;;;;;;;;;;;17.32;60.13;101591.75;5038365;28;1916;-36
2022/03/27 03:27:27;;;;;;;;;;;;;;;17.27;60.84;101577.84;5039555;28;1776;-36
2022/03/27 03:29:54;;;;;;;;;;;;;;;17.32;60.94;101596.25;5047201;28;1815;-37
2022/03/27 03:32:24;;;;;;;;;;;;;;;17.31;60.67;101590.03;5045657;28;1504;-36
2022/03/27 03:34:53;;;;;;;;;;;;;;;17.27;59.92;101583.19;5046290;28;1061;-36
2022/03/27 03:37:23;;;;;;;;;;;;;;;17.25;60.94;101591.31;5044523;28;1810;-36
2022/03/27 03:40:03;;;;;;;;;;;;;;;17.28;60.57;101582.22;5048658;28;1909;-36
2022/03/27 03:42:30;;;;;;;;;;;;;;;17.25;60.61;101582.44;5028620;28;1982;-36
2022/03/27 03:45:05;;;;;;;;;;;;;;;17.22;60.54;101587.97;5046843;28;1843;-36
2022/03/27 03:47:34;;;;;;;;;;;;;;;17.22;61.11;101582.63;5046150;28;2143;-36
2022/03/27 03:50:00;;;;;;;;;;;;;;;17.24;60.84;101591.41;5042855;28;1816;-36
2022/03/27 03:52:29;;;;;;;;;;;;;;;17.27;60.59;101600.09;5040904;28;1779;-36
2022/03/27 03:55:05;;;;;;;;;;;;;;;17.24;60.92;101594.06;5039931;28;1601;-36
2022/03/27 03:57:35;;;;;;;;;;;;;;;17.26;60.63;101608.19;5038440;28;1970;-36
2022/03/27 04:00:01;;;;;;;;;;;;;;;17.23;60.70;101601.25;5041317;28;1910;-36
2022/03/27 04:02:27;;;;;;;;;;;;;;;17.25;61.16;101620.72;5036815;28;1955;-36
2022/03/27 04:04:56;;;;;;;;;;;;;;;17.26;61.07;101611.72;5048973;28;1634;-36
2022/03/27 04:07:25;;;;;;;;;;;;;;;17.26;60.56;101602.84;5050594;28;1558;-36
2022/03/27 04:09:56;;;;;;;;;;;;;;;17.25;60.48;101609.16;5049016;28;1912;-36
2022/03/27 04:12:26;;;;;;;;;;;;;;;17.24;60.50;101620.81;5033543;28;1861;-36
2022/03/27 04:14:56;;;;;;;;;;;;;;;17.24;60.46;101629.69;5051514;28;1475;-36
2022/03/27 04:17:24;;;;;;;;;;;;;;;17.24;60.84;101627.00;5044612;28;1514;-36
2022/03/27 04:19:50;;;;;;;;;;;;;;;17.21;60.80;101621.00;5050698;28;1944;-36
2022/03/27 04:22:18;;;;;;;;;;;;;;;17.22;60.50;101628.94;5050370;28;1923;-36
2022/03/27 04:24:45;;;;;;;;;;;;;;;17.22;60.95;101628.06;5037046;28;1724;-36
2022/03/27 04:29:59;;;;;;;;;;;;;;;17.19;61.15;101631.81;5040730;28;1702;-36
2022/03/27 04:32:28;;;;;;;;;;;;;;;17.20;60.79;101638.00;5041713;28;1819;-36
2022/03/27 04:34:54;;;;;;;;;;;;;;;17.20;60.97;101649.56;5040980;28;1598;-35
2022/03/27 04:37:22;;;;;;;;;;;;;;;17.20;61.19;101644.22;5043462;28;1744;-37
2022/03/27 04:39:49;;;;;;;;;;;;;;;17.20;61.05;101643.34;5046894;28;1575;-36
2022/03/27 04:42:18;;;;;;;;;;;;;;;17.24;61.05;101639.53;5048081;28;2001;-36
2022/03/27 04:44:48;;;;;;;;;;;;;;;17.27;60.78;101653.53;5046231;28;1863;-36
2022/03/27 04:47:30;;;;;;;;;;;;;;;17.23;60.72;101635.13;5050163;28;1677;-36
2022/03/27 04:50:10;;;;;;;;;;;;;;;17.26;60.84;101645.63;5045595;28;1561;-36
2022/03/27 04:52:40;;;;;;;;;;;;;;;17.24;61.17;101636.84;5044914;28;1446;-36
2022/03/27 04:55:08;;;;;;;;;;;;;;;17.22;61.23;101642.28;5049829;28;1479;-36
2022/03/27 04:57:35;;;;;;;;;;;;;;;17.24;60.69;101652.88;5043340;28;1930;-36
2022/03/27 05:00:02;;;;;;;;;;;;;;;17.22;61.17;101655.66;5048981;28;1910;-36
2022/03/27 05:02:30;;;;;;;;;;;;;;;17.24;60.62;101663.56;5043555;28;1527;-36
2022/03/27 05:05:04;;;;;;;;;;;;;;;17.21;60.80;101658.41;5036331;28;2007;-36
2022/03/27 05:07:31;;;;;;;;;;;;;;;17.24;61.09;101655.56;5044433;28;1595;-36
2022/03/27 05:10:00;;;;;;;;;;;;;;;17.24;60.83;101660.91;5036906;28;1420;-36
2022/03/27 05:12:36;;;;;;;;;;;;;;;17.24;61.01;101658.22;5041630;28;1912;-36
2022/03/27 05:15:05;;;;;;;;;;;;;;;17.24;60.94;101666.25;5038552;28;1946;-36
2022/03/27 05:17:34;;;;;;;;;;;;;;;17.25;61.18;101659.97;5049171;28;1880;-36
2022/03/27 05:20:07;;;;;;;;;;;;;;;17.24;61.15;101661.75;5035925;28;1908;-36
2022/03/27 05:22:34;;;;;;;;;;;;;;;17.29;60.59;101659.66;5049879;28;1944;-36
2022/03/27 05:25:01;;;;;;;;;;;;;;;17.48;60.20;101656.56;5047041;28;1720;-37
2022/03/27 05:27:30;;;;;;;;;;;;;;;17.83;61.01;101665.84;5047389;28;1908;-36
2022/03/27 05:29:57;;;;;;;;;;;;;;;18.34;59.27;101656.97;5047538;28;1444;-36
2022/03/27 05:32:26;;;;;;;;;;;;;;;18.66;58.62;101668.91;5053216;28;1900;-36
2022/03/27 05:35:01;;;;;;;;;;;;;;;18.99;57.76;101650.50;5046113;28;1429;-37
2022/03/27 05:37:37;;;;;;;;;;;;;;;19.24;57.59;101650.38;5037513;28;1941;-37
2022/03/27 05:40:06;;;;;;;;;;;;;;;19.45;57.08;101641.66;5050261;28;1519;-36
2022/03/27 05:42:32;;;;;;;;;;;;;;;19.68;56.94;101653.31;5051790;28;1971;-36
2022/03/27 05:44:59;;;;;;;;;;;;;;;19.75;56.42;101638.47;5030487;28;1522;-36
2022/03/27 05:47:26;;;;;;;;;;;;;;;19.82;55.79;101649.59;5045884;28;1650;-37
2022/03/27 05:49:52;;;;;;;;;;;;;;;19.43;57.67;101644.44;5050490;28;1555;-36
2022/03/27 05:52:19;;;;;;;;;;;;;;;19.21;58.03;101639.00;5037383;28;1815;-36
2022/03/27 05:54:46;;;;;;;;;;;;;;;19.61;57.20;101652.06;4996488;28;10922;-37
2022/03/27 05:57:14;;;;;;;;;;;;;;;19.88;56.73;101656.31;5042257;28;1876;-37
2022/03/27 05:59:40;;;;;;;;;;;;;;;19.84;56.53;101656.53;5043213;28;1602;-36
2022/03/27 06:02:07;;;;;;;;;;;;;;;19.73;56.08;101645.78;5004410;28;1111269;-37
2022/03/27 06:04:33;;;;;;;;;;;;;;;19.95;55.27;101665.59;5046887;28;1708;-37
2022/03/27 06:07:00;;;;;;;;;;;;;;;20.03;56.07;101655.09;5044164;28;1393;-37
2022/03/27 06:09:26;;;;;;;;;;;;;;;20.27;55.53;101653.19;5037360;28;1723;-36
2022/03/27 06:11:54;;;;;;;;;;;;;;;20.29;55.17;101658.41;5048442;28;1560;-36
2022/03/27 06:14:21;;;;;;;;;;;;;;;20.12;55.69;101667.81;5042165;28;1674;-36
2022/03/27 06:16:47;;;;;;;;;;;;;;;20.22;55.20;101686.75;5048142;28;2049;-36
2022/03/27 06:19:13;;;;;;;;;;;;;;;20.07;55.61;101683.41;5042817;28;1680;-36
2022/03/27 06:21:43;;;;;;;;;;;;;;;19.67;57.42;101673.06;5046107;28;1906;-36
2022/03/27 06:24:10;;;;;;;;;;;;;;;19.32;58.09;101675.72;5038990;28;1734;-36
2022/03/27 06:26:36;;;;;;;;;;;;;;;19.11;58.43;101689.78;5044543;28;1869;-36
2022/03/27 06:29:04;;;;;;;;;;;;;;;18.99;58.51;101691.53;5047467;28;1410;-36
2022/03/27 06:31:30;;;;;;;;;;;;;;;18.94;59.00;101696.41;5047924;28;1948;-36
2022/03/27 06:33:57;;;;;;;;;;;;;;;18.98;59.46;101691.66;5041899;28;1923;-36
2022/03/27 06:36:24;;;;;;;;;;;;;;;18.96;58.68;101699.81;5038179;28;1697;-35
2022/03/27 06:38:50;;;;;;;;;;;;;;;18.94;60.12;101699.09;5050573;28;1701;-36
2022/03/27 06:41:17;;;;;;;;;;;;;;;18.93;59.86;101704.56;5050809;28;1977;-37
2022/03/27 06:43:43;;;;;;;;;;;;;;;18.78;60.29;101696.63;5041409;28;1797;-37
2022/03/27 06:46:16;;;;;;;;;;;;;;;18.69;60.70;101692.78;5047500;28;1977;-36
2022/03/27 06:48:42;;;;;;;;;;;;;;;18.63;60.71;101693.22;5041829;28;1973;-36
2022/03/27 06:51:09;;;;;;;;;;;;;;;18.57;59.90;101690.13;5006522;28;11080;-36
2022/03/27 06:53:35;;;;;;;;;;;;;;;18.49;60.70;101696.91;5063858;28;1898;-36
2022/03/27 06:56:02;;;;;;;;;;;;;;;18.48;60.27;101692.53;5064822;28;1585;-37
2022/03/27 06:58:29;;;;;;;;;;;;;;;18.57;60.57;101703.53;5066398;28;2485;-37
2022/03/27 07:03:43;;;;;;;;;;;;;;;18.61;60.16;101705.88;5061999;28;1507;-37
2022/03/27 07:06:10;;;;;;;;;;;;;;;18.62;60.12;101694.22;5060031;28;1865;-37
2022/03/27 07:08:38;;;;;;;;;;;;;;;18.61;59.95;101705.88;5065071;28;1485;-37
2022/03/27 07:11:07;;;;;;;;;;;;;;;18.63;60.67;101693.22;5058546;28;1770;-36
2022/03/27 07:13:34;;;;;;;;;;;;;;;18.62;60.67;101696.00;5058985;28;1785;-37
2022/03/27 07:16:08;;;;;;;;;;;;;;;18.59;61.22;101702.44;5062700;28;1722;-37
2022/03/27 07:18:35;;;;;;;;;;;;;;;18.59;61.76;101697.09;5062686;28;1781;-36
2022/03/27 07:21:08;;;;;;;;;;;;;;;18.60;61.92;101698.81;5063591;28;1983;-37
2022/03/27 07:23:38;;;;;;;;;;;;;;;18.58;61.51;101707.91;5060202;28;1646;-37
2022/03/27 07:26:07;;;;;;;;;;;;;;;18.52;62.05;101703.00;5058040;28;1913;-37
2022/03/27 07:28:37;;;;;;;;;;;;;;;18.52;62.04;101713.72;5063163;28;1986;-36
2022/03/27 07:31:03;;;;;;;;;;;;;;;18.60;61.26;101712.22;5065267;28;1455;-37
2022/03/27 07:33:32;;;;;;;;;;;;;;;18.63;61.13;101705.78;5066833;28;1908;-38
2022/03/27 07:36:07;;;;;;;;;;;;;;;18.54;60.60;101709.94;5054755;28;2073;-36
2022/03/27 07:38:38;;;;;;;;;;;;;;;18.51;60.77;101698.63;5063020;28;1926;-36
2022/03/27 07:41:08;;;;;;;;;;;;;;;18.52;60.81;101706.53;5061947;28;1987;-36
2022/03/27 07:43:35;;;;;;;;;;;;;;;18.54;61.25;101704.59;5063429;28;1921;-35
2022/03/27 07:46:01;;;;;;;;;;;;;;;18.57;61.49;101707.06;5064961;28;1750;-40
2022/03/27 07:48:30;;;;;;;;;;;;;;;18.58;61.55;101687.34;5061402;28;1785;-38
2022/03/27 07:50:57;;;;;;;;;;;;;;;18.58;62.21;101687.34;5061988;28;2006;-37
2022/03/27 07:53:24;;;;;;;;;;;;;;;18.60;61.28;101696.16;5065183;28;1682;-36
2022/03/27 07:55:59;;;;;;;;;;;;;;;18.60;61.94;101681.88;5062951;28;1739;-37
2022/03/27 07:58:26;;;;;;;;;;;;;;;18.60;62.19;101706.84;5062185;28;1715;-36
2022/03/27 08:00:52;;;;;;;;;;;;;;;18.53;62.36;101692.19;5060000;28;1785;-36
2022/03/27 08:03:19;;;;;;;;;;;;;;;18.53;62.15;101710.94;5064278;28;1972;-37
2022/03/27 08:05:46;;;;;;;;;;;;;;;18.59;61.30;101723.03;5053970;28;1797;-37
2022/03/27 08:08:22;;;;;;;;;;;;;;;18.59;61.61;101713.16;5059952;28;1719;-36
2022/03/27 08:10:55;;;;;;;;;;;;;;;18.58;61.55;101710.59;5062071;28;1918;-37
2022/03/27 08:13:25;;;;;;;;;;;;;;;18.56;61.45;101713.41;5059730;28;1943;-38
2022/03/27 08:15:55;;;;;;;;;;;;;;;18.53;61.56;101718.13;5064690;28;1720;-37
2022/03/27 08:18:25;;;;;;;;;;;;;;;18.52;60.95;101721.75;5069159;28;1761;-37
2022/03/27 08:20:51;;;;;;;;;;;;;;;18.43;61.83;101736.66;5065211;28;1660;-37
2022/03/27 08:23:19;;;;;;;;;;;;;;;18.32;60.90;101725.84;5061318;28;2564;-37
2022/03/27 08:28:34;;;;;;;;;;;;;;;18.08;59.92;101731.94;5063866;28;1929;-37
2022/03/27 08:31:04;;;;;;;;;;;;;;;17.99;59.62;101719.19;5057688;28;1912;-37
2022/03/27 08:33:30;;;;;;;;;;;;;;;17.94;59.95;101711.47;5058453;28;1782;-37
2022/03/27 08:35:58;;;;;;;;;;;;;;;17.94;59.68;101715.97;5060229;28;1583;-37
2022/03/27 08:38:26;;;;;;;;;;;;;;;17.89;59.33;101719.81;5067936;28;1827;-37
2022/03/27 08:41:02;;;;;;;;;;;;;;;17.85;58.70;101723.66;5064738;28;2051;-38
2022/03/27 08:43:39;;;;;;;;;;;;;;;17.79;55.04;101713.34;5066710;28;1902;-37
2022/03/27 08:46:09;;;;;;;;;;;;;;;17.89;57.63;101719.81;5062451;28;1651;-37
2022/03/27 08:48:38;;;;;;;;;;;;;;;17.83;56.89;101714.00;5067081;28;1891;-37
2022/03/27 08:51:11;;;;;;;;;;;;;;;17.78;57.32;101716.97;5068120;28;1753;-37
2022/03/27 08:53:47;;;;;;;;;;;;;;;17.75;57.75;101701.16;5056132;28;1551;-37
2022/03/27 08:56:18;;;;;;;;;;;;;;;17.76;57.31;101702.00;5074247;28;1837;-37
2022/03/27 08:58:46;;;;;;;;;;;;;;;17.76;57.79;101691.28;5058503;28;1966;-37
2022/03/27 09:01:12;;;;;;;;;;;;;;;17.73;58.25;101681.66;5065709;28;1901;-37
2022/03/27 09:03:40;;;;;;;;;;;;;;;17.73;58.44;101692.38;5072891;28;1973;-37
2022/03/27 09:06:08;;;;;;;;;;;;;;;17.76;58.56;101686.78;5068114;28;1866;-38
2022/03/27 09:08:37;;;;;;;;;;;;;;;17.74;58.35;101688.72;5058372;28;1423;-37
2022/03/27 09:11:18;;;;;;;;;;;;;;;17.76;58.34;101681.44;5066610;28;1888;-37
2022/03/27 09:13:50;;;;;;;;;;;;;;;17.77;57.93;101685.84;5069695;28;1845;-37
2022/03/27 09:16:18;;;;;;;;;;;;;;;17.79;58.60;101677.72;5059569;28;1683;-39
2022/03/27 09:18:49;;;;;;;;;;;;;;;17.94;57.42;101678.50;5069894;28;1859;-37
2022/03/27 09:21:29;;;;;;;;;;;;;;;18.00;57.91;101689.63;5060984;28;1678;-37
2022/03/27 09:23:58;;;;;;;;;;;;;;;18.14;57.82;101691.34;5072854;28;1571;-35
2022/03/27 09:26:29;;;;;;;;;;;;;;;18.20;58.65;101679.34;5065637;28;1652;-36
2022/03/27 09:29:12;;;;;;;;;;;;;;;18.18;58.41;101682.13;5033674;28;1606;-36
2022/03/27 09:31:42;;;;;;;;;;;;;;;18.25;58.61;101683.41;5069376;28;1592;-36
2022/03/27 09:34:11;;;;;;;;;;;;;;;18.25;58.86;101683.41;5063732;28;2034;-36
2022/03/27 09:36:46;;;;;;;;;;;;;;;18.28;59.06;101667.16;5070580;28;1672;-37
2022/03/27 09:39:22;;;;;;;;;;;;;;;18.29;58.64;101666.19;5067521;28;1560;-37
2022/03/27 09:41:54;;;;;;;;;;;;;;;18.19;59.23;101662.44;5056310;28;1906;-37
2022/03/27 09:44:24;;;;;;;;;;;;;;;18.24;59.53;101659.44;5069407;28;1571;-38
2022/03/27 09:49:43;;;;;;;;;;;;;;;18.21;59.86;101668.53;5062522;28;2327;-38
2022/03/27 09:52:22;;;;;;;;;;;;;;;18.16;59.74;101678.72;5069876;28;1637;-37
2022/03/27 09:55:03;;;;;;;;;;;;;;;18.14;59.80;101675.28;5055258;28;1920;-38
2022/03/27 09:57:38;;;;;;;;;;;;;;;18.12;60.07;101665.66;5066775;28;1793;-37
2022/03/27 10:00:19;;;;;;;;;;;;;;;18.23;60.08;101655.91;5064837;28;1789;-37
2022/03/27 10:02:46;;;;;;;;;;;;;;;18.28;60.18;101667.16;5050143;28;1959;-37
2022/03/27 10:05:14;;;;;;;;;;;;;;;18.29;60.16;101652.78;5041869;28;1486;-37
2022/03/27 10:07:42;;;;;;;;;;;;;;;18.26;60.24;101660.19;5039331;28;1587;-38
2022/03/27 10:10:14;;;;;;;;;;;;;;;18.08;60.21;101638.25;5029442;28;1863;-37
2022/03/27 10:12:44;;;;;;;;;;;;;;;18.04;60.26;101647.44;5043149;28;1718;-38
2022/03/27 10:15:12;;;;;;;;;;;;;;;18.02;60.08;101638.69;5039301;28;1877;-37
2022/03/27 10:17:43;;;;;;;;;;;;;;;18.01;60.09;101639.66;5031958;28;1788;-38
2022/03/27 10:20:14;;;;;;;;;;;;;;;18.03;60.00;101648.44;5044288;28;1579;-38
2022/03/27 10:22:45;;;;;;;;;;;;;;;18.03;59.73;101651.97;5044102;28;1977;-37
2022/03/27 10:25:13;;;;;;;;;;;;;;;18.02;60.01;101649.38;5038933;28;1647;-38
2022/03/27 10:27:56;;;;;;;;;;;;;;;18.09;60.34;101656.88;5045457;28;1798;-38
2022/03/27 10:36:01;;;;;;;;;;;;;;;18.10;60.74;101649.69;5036402;28;1757;-37
2022/03/27 10:38:39;;;;;;;;;;;;;;;18.03;61.00;101656.47;5040224;28;1477;-37
2022/03/27 10:41:15;;;;;;;;;;;;;;;18.03;61.45;101651.97;5037501;28;1808;-37
2022/03/27 10:43:55;;;;;;;;;;;;;;;18.02;61.53;101644.03;5039423;28;1910;-38
2022/03/27 10:46:23;;;;;;;;;;;;;;;17.99;61.62;101638.91;5040470;28;1625;-37
2022/03/27 10:48:54;;;;;;;;;;;;;;;17.99;61.71;101639.75;5042593;28;1752;-38
2022/03/27 10:51:46;;;;;;;;;;;;;;;17.98;61.64;101646.06;5036328;28;1775;-37
2022/03/27 10:54:28;;;;;;;;;;;;;;;18.01;61.46;101628.94;5018628;28;1931;-37
2022/03/27 10:56:56;;;;;;;;;;;;;;;18.00;61.78;101641.44;5040884;28;1734;-37
2022/03/27 10:59:24;;;;;;;;;;;;;;;17.98;61.90;101634.50;5042583;28;1625;-37
2022/03/27 11:02:03;;;;;;;;;;;;;;;18.01;61.35;101618.25;5039983;28;1711;-38
2022/03/27 11:04:41;;;;;;;;;;;;;;;18.04;62.11;101628.72;5058868;28;1610;-38
2022/03/27 11:07:24;;;;;;;;;;;;;;;18.08;61.49;101627.53;5060004;28;1705;-37
2022/03/27 11:09:55;;;;;;;;;;;;;;;18.06;61.72;101629.47;5066548;28;1854;-37
2022/03/27 11:12:39;;;;;;;;;;;;;;;18.05;61.69;101627.78;5055914;28;1648;-37
2022/03/27 11:15:06;;;;;;;;;;;;;;;18.03;62.33;101609.13;5050949;28;1420;-39
2022/03/27 11:17:55;;;;;;;;;;;;;;;18.01;61.70;101610.22;5052856;28;1589;-38
2022/03/27 11:20:58;;;;;;;;;;;;;;;18.04;62.00;101615.34;5052742;28;1619;-38
2022/03/27 11:23:27;;;;;;;;;;;;;;;18.05;62.19;101612.56;5061583;28;1918;-38
2022/03/27 11:25:54;;;;;;;;;;;;;;;18.04;61.90;101609.97;5057850;28;1954;-37
2022/03/27 11:28:22;;;;;;;;;;;;;;;18.03;62.04;101586.88;5068927;28;1554;-37
2022/03/27 11:31:14;;;;;;;;;;;;;;;18.02;62.56;101602.06;5059818;28;1606;-37
2022/03/27 11:33:40;;;;;;;;;;;;;;;18.03;62.26;101602.94;5067584;28;1564;-37
2022/03/27 11:36:23;;;;;;;;;;;;;;;18.03;62.17;101605.63;5062782;28;1911;-37
2022/03/27 11:39:04;;;;;;;;;;;;;;;18.03;62.21;101608.28;5073115;28;1905;-38
2022/03/27 11:41:44;;;;;;;;;;;;;;;18.03;62.55;101581.53;5058937;28;1555;-38
2022/03/27 11:45:06;;;;;;;;;;;;;;;18.00;62.55;101592.44;5061539;28;1977;-38
2022/03/27 11:47:20;;;;;;;;;;;;;;;17.99;62.34;101582.72;5044803;28;1818;-37
2022/03/27 11:49:48;;;;;;;;;;;;;;;17.98;62.23;101570.28;5066296;28;1838;-38
2022/03/27 11:52:16;;;;;;;;;;;;;;;17.99;62.21;101569.31;5069135;28;1853;-37
2022/03/27 11:54:48;;;;;;;;;;;;;;;17.99;62.16;101563.97;5060738;28;1926;-37
2022/03/27 11:57:17;;;;;;;;;;;;;;;18.00;62.53;101571.88;5066147;28;1624;-37
2022/03/27 11:59:46;;;;;;;;;;;;;;;17.98;62.41;101564.94;5064516;28;1541;-37
2022/03/27 12:02:12;;;;;;;;;;;;;;;17.98;63.04;101563.09;5071768;28;1918;-36
2022/03/27 12:04:55;;;;;;;;;;;;;;;18.20;62.28;101559.72;5062223;28;1664;-37
2022/03/27 12:07:26;;;;;;;;;;;;;;;18.16;61.87;101555.56;5046189;28;1889;-37
2022/03/27 12:10:07;;;;;;;;;;;;;;;18.15;62.11;101543.16;5060513;28;1809;-37
2022/03/27 12:12:36;;;;;;;;;;;;;;;18.31;62.28;101542.06;5066740;28;1883;-36
2022/03/27 12:15:08;;;;;;;;;;;;;;;18.42;62.10;101552.81;5062742;28;1632;-36
2022/03/27 12:17:44;;;;;;;;;;;;;;;18.38;62.42;101525.44;5073949;28;1641;-37
2022/03/27 12:20:12;;;;;;;;;;;;;;;18.38;61.97;101532.59;5059599;28;1489;-36
2022/03/27 12:22:41;;;;;;;;;;;;;;;18.39;61.82;101531.63;5070318;28;2053;-36
2022/03/27 12:25:29;;;;;;;;;;;;;;;18.41;61.54;101535.91;5067747;28;2023;-36
2022/03/27 12:30:53;;;;;;;;;;;;;;;18.31;61.69;101516.13;5057044;28;1511;-37
2022/03/27 12:33:23;;;;;;;;;;;;;;;18.48;61.67;101537.19;5058343;28;1660;-37
2022/03/27 12:36:03;;;;;;;;;;;;;;;18.45;61.28;101520.47;5065941;28;1504;-37
2022/03/27 12:38:33;;;;;;;;;;;;;;;18.47;61.94;101515.84;5071619;28;1592;-36
2022/03/27 12:41:04;;;;;;;;;;;;;;;18.43;62.41;101522.41;5074053;28;1761;-36
2022/03/27 12:43:31;;;;;;;;;;;;;;;18.37;62.36;101504.13;5063067;28;1974;-36
2022/03/27 12:45:57;;;;;;;;;;;;;;;18.34;62.89;101517.72;5027668;28;10751;-36
2022/03/27 12:48:27;;;;;;;;;;;;;;;18.37;62.48;101512.16;5068691;28;1779;-36
2022/03/27 12:51:01;;;;;;;;;;;;;;;18.40;62.95;101509.22;5060184;28;1549;-36
2022/03/27 12:53:44;;;;;;;;;;;;;;;18.27;62.44;101526.22;5059117;28;1917;-36
2022/03/27 12:56:20;;;;;;;;;;;;;;;18.26;61.80;101519.16;5068614;28;1654;-37
2022/03/27 12:58:49;;;;;;;;;;;;;;;18.21;61.73;101526.66;5062439;28;1730;-36
2022/03/27 13:01:19;;;;;;;;;;;;;;;18.20;62.15;101519.56;5070915;28;1850;-37
2022/03/27 13:04:00;;;;;;;;;;;;;;;18.21;63.14;101521.31;5068325;28;1905;-36
2022/03/27 13:06:33;;;;;;;;;;;;;;;18.18;64.11;101518.84;5069952;28;2078;-37
2022/03/27 13:09:03;;;;;;;;;;;;;;;18.20;64.18;101518.72;5058573;28;1730;-36
2022/03/27 13:14:30;;;;;;;;;;;;;;;18.28;61.78;101517.22;5067196;28;2697;-36
2022/03/27 13:16:59;;;;;;;;;;;;;;;18.34;62.45;101515.03;5066494;28;1747;-36
2022/03/27 13:19:41;;;;;;;;;;;;;;;18.39;63.32;101518.25;5058577;28;1504;-36
2022/03/27 13:22:10;;;;;;;;;;;;;;;18.34;62.38;101523.06;5062189;28;1633;-36